Latest Weather Observations for Parawa West

IDS60801

Issued at 2:01 pm CDT Wednesday 22 February 2017 (issued every 30 minutes, with the page automatically refreshed every 10 minutes)

About weather observations | Map of weather stations | Latest weather observations for SA | Other Formats
Station Details ID: 023875 Name: SECOND VALLEY FOREST AWS Lat: -35.57 Lon: 138.29 Height: 341.0 m
Data from the previous 72 hours. | See also: Recent months at Parawa West
Date/Time
CDT
Temp
°C
App
Temp
°C
Dew
Point
°C
Rel
Hum
%
Delta-T
°C
Wind Press
QNH
hPa
Press
MSL
hPa
Rain since
9am
mm
Dir  Spd
km/h
Gust
km/h
Spd
kts
Gust
kts
22/02:00pm 19.9 15.0 11.4 58 4.8 NW 28 50 15 27 1010.2 1009.1 0.0
22/01:33pm 19.4 12.8 10.1 55 5.1 NW 35 56 19 30 1010.1 1009.0 0.0
22/01:30pm 19.6 12.6 9.8 53 5.3 NW 37 54 20 29 1010.1 1009.0 0.0
22/01:00pm 19.5 12.9 11.3 59 4.6 NW 37 59 20 32 1010.0 1008.9 0.0
22/12:30pm 19.8 14.4 12.3 62 4.3 NW 32 50 17 27 1010.1 1009.0 0.0
22/12:22pm 20.6 16.4 13.6 64 4.1 NW 28 43 15 23 1010.0 1008.9 0.0
22/12:00pm 20.7 19.0 12.4 59 4.8 NW 13 24 7 13 1008.9 1007.8 0.0
22/11:30am 19.7 15.6 11.5 59 4.6 NW 24 37 13 20 1010.0 1008.9 0.0
22/11:00am 20.5 14.6 11.2 55 5.2 WNW 33 54 18 29 1010.4 1009.3 0.0
22/10:30am 19.9 15.4 14.9 73 3.0 WNW 32 52 17 28 1009.8 1008.7 0.0
22/10:24am 19.4 14.6 15.7 79 2.2 WNW 35 56 19 30 1010.1 1009.0 0.0
22/10:17am 19.5 13.8 15.2 76 2.6 WNW 39 57 21 31 1009.8 1008.7 0.0
22/10:06am 22.4 17.6 11.5 50 6.2 NNW 28 56 15 30 1009.3 1008.2 0.0
22/10:00am 22.7 18.4 9.5 43 7.2 NNW 22 48 12 26 1009.0 1007.9 0.0
22/09:30am 23.6 20.0 6.8 34 8.8 NW 15 32 8 17 1008.4 1007.3 0.0
22/09:00am 23.5 20.2 6.3 33 9.0 NW 13 32 7 17 1008.2 1007.1 0.0
22/08:30am 23.4 20.2 5.3 31 9.3 NNW 11 28 6 15 1008.1 1006.9 0.0
22/08:00am 22.6 19.8 5.1 32 8.9 WNW 9 20 5 11 1008.2 1007.1 0.0
22/07:30am 22.2 19.4 5.2 33 8.6 NNW 9 26 5 14 1007.8 1006.7 0.0
22/07:00am 22.1 19.3 5.1 33 8.6 NW 9 22 5 12 1007.4 1006.3 0.0
22/06:30am 22.3 19.4 4.8 32 8.8 NNW 9 24 5 13 1007.1 1006.0 0.0
22/06:00am 22.0 19.1 4.6 32 8.7 W 9 37 5 20 1006.9 1005.8 0.0
22/05:30am 22.0 18.6 4.1 31 8.9 W 11 22 6 12 1007.1 1006.0 0.0
22/05:00am 21.8 18.8 3.9 31 8.8 NE 9 20 5 11 1007.2 1006.1 0.0
22/04:30am 21.6 18.7 2.8 29 9.1 S 7 20 4 11 1007.8 1006.7 0.0
22/04:00am 21.4 18.5 2.6 29 9.0 WSW 7 15 4 8 1008.3 1007.2 0.0
22/03:30am 21.5 18.8 3.7 31 8.7 WSW 7 33 4 18 1008.7 1007.6 0.0
22/03:00am 20.8 18.2 4.4 34 8.1 ESE 7 17 4 9 1009.2 1008.1 0.0
22/02:30am 21.4 18.9 4.0 32 8.6 NE 6 19 3 10 1009.5 1008.4 0.0
22/02:00am 21.3 18.9 4.4 33 8.4 W 6 19 3 10 1010.2 1009.1 0.0
22/01:30am 21.6 19.1 4.7 33 8.4 NE 7 20 4 11 1010.8 1009.8 0.0
22/01:00am 21.3 19.1 5.2 35 8.1 E 6 15 3 8 1011.1 1010.0 0.0
22/12:30am 18.8 17.3 6.9 46 6.1 W 4 9 2 5 1011.5 1010.4 0.0
22/12:00am 19.2 18.2 7.3 46 6.1 E 2 9 1 5 1012.1 1011.0 0.0
 
Date/Time
CDT
Temp
°C
App
Temp
°C
Dew
Point
°C
Rel
Hum
%
Delta-T
°C
Wind Press
QNH
hPa
Press
MSL
hPa
Rain since
9am
mm
Dir  Spd
km/h
Gust
km/h
Spd
kts
Gust
kts
21/11:30pm 18.6 17.7 9.4 55 4.9 NNE 4 6 2 3 1012.4 1011.3 0.0
21/11:00pm 19.2 17.5 9.7 54 5.1 NE 9 15 5 8 1012.9 1011.8 0.0
21/10:30pm 20.3 18.0 8.9 48 6.1 NE 11 15 6 8 1013.4 1012.4 0.0
21/10:00pm 21.6 18.4 8.5 43 7.0 ENE 15 20 8 11 1013.8 1012.8 0.0
21/09:30pm 20.7 18.3 8.7 46 6.4 NE 11 15 6 8 1013.9 1012.9 0.0
21/09:00pm 21.6 18.8 8.5 43 7.0 NE 13 15 7 8 1013.8 1012.8 0.0
21/08:30pm 21.1 18.8 9.0 46 6.5 ENE 11 13 6 7 1013.7 1012.7 0.0
21/08:00pm 21.4 19.4 10.3 49 6.1 E 11 11 6 6 1013.6 1012.6 0.0
21/07:30pm 23.6 23.1 7.7 36 8.5 CALM 0 2 0 1 1013.5 1012.5 0.0
21/07:00pm 25.5 24.9 7.6 32 9.6 CALM 0 6 0 3 1013.5 1012.5 0.0
21/06:30pm 24.8 23.4 7.4 33 9.3 NNE 4 7 2 4 1013.5 1012.5 0.0
21/06:00pm 25.5 23.5 7.1 31 9.8 NE 7 19 4 10 1013.8 1012.8 0.0
21/05:30pm 25.0 23.1 6.7 31 9.7 N 6 13 3 7 1014.0 1013.0 0.0
21/05:00pm 24.8 22.8 7.0 32 9.5 N 7 15 4 8 1014.4 1013.3 0.0
21/04:30pm 25.0 23.1 6.7 31 9.7 NNE 6 11 3 6 1014.9 1013.8 0.0
21/04:00pm 25.4 23.7 8.4 34 9.3 N 7 19 4 10 1015.2 1014.1 0.0
21/03:30pm 24.5 22.9 8.0 35 8.9 NE 6 13 3 7 1015.5 1014.4 0.0
21/03:00pm 23.3 21.3 7.0 35 8.6 NNE 7 17 4 9 1016.2 1015.2 0.0
21/02:30pm 23.5 22.0 9.1 40 7.9 N 7 22 4 12 1016.7 1015.7 0.0
21/02:00pm 21.9 18.5 5.8 35 8.2 NW 13 26 7 14 1017.1 1016.1 0.0
21/01:30pm 22.2 20.3 7.6 39 7.7 N 7 17 4 9 1017.3 1016.2 0.0
21/01:00pm 21.1 18.8 7.3 41 7.2 NNW 9 17 5 9 1017.6 1016.5 0.0
21/12:30pm 20.8 18.9 7.4 42 7.0 NNW 7 17 4 9 1017.8 1016.7 0.0
21/12:00pm 20.4 18.8 8.1 45 6.5 NNW 6 11 3 6 1018.2 1017.1 0.0
21/11:30am 19.8 17.9 9.1 50 5.7 NW 9 20 5 11 1018.8 1017.8 0.0
21/11:00am 19.2 17.1 8.2 49 5.8 NW 9 20 5 11 1019.0 1018.0 0.0
21/10:30am 18.5 16.9 8.7 53 5.2 NW 7 13 4 7 1018.9 1017.9 0.0
21/10:00am 17.6 15.9 8.2 54 4.9 NNW 7 15 4 8 1019.0 1018.0 0.0
21/09:30am 15.8 14.7 8.3 61 3.9 NE 4 11 2 6 1018.9 1017.9 0.0
21/09:00am 14.7 13.4 7.5 62 3.6 ENE 4 9 2 5 1018.9 1017.9 0.0
21/08:30am 13.1 11.2 7.5 69 2.8 NE 7 15 4 8 1019.1 1018.1 0.0
21/08:00am 11.9 9.1 7.0 72 2.4 NE 11 17 6 9 1018.7 1017.7 0.0
21/07:30am 11.1 8.0 7.2 77 1.9 NE 13 19 7 10 1018.3 1017.2 0.0
21/07:00am 10.7 6.9 7.6 81 1.5 ENE 17 22 9 12 1018.0 1016.9 0.0
21/06:30am 10.8 6.8 8.2 84 1.3 ENE 19 24 10 13 1018.1 1017.0 0.0
21/06:00am 10.9 7.0 8.7 86 1.1 ENE 19 26 10 14 1018.1 1017.0 0.0
21/05:30am 11.0 7.1 8.8 86 1.1 ENE 19 26 10 14 1018.0 1016.9 0.0
21/05:00am 11.1 7.2 8.5 84 1.3 ENE 19 24 10 13 1017.9 1016.8 0.0
21/04:30am 11.1 7.1 8.3 83 1.4 ENE 19 24 10 13 1017.9 1016.8 0.0
21/04:00am 11.2 7.5 8.1 81 1.5 ENE 17 24 9 13 1018.1 1017.0 0.0
21/03:30am 11.1 7.9 8.5 84 1.3 ENE 15 19 8 10 1018.2 1017.1 0.0
21/03:00am 10.9 8.0 8.3 84 1.3 E 13 19 7 10 1018.2 1017.1 0.0
21/02:30am 10.7 7.4 8.1 84 1.3 E 15 19 8 10 1018.2 1017.1 0.0
21/02:00am 10.7 7.8 8.1 84 1.3 E 13 19 7 10 1018.5 1017.5 0.0
21/01:30am 10.8 7.9 8.0 83 1.4 ESE 13 17 7 9 1018.8 1017.8 0.0
21/01:00am 10.8 7.8 7.9 82 1.4 ESE 13 17 7 9 1018.9 1017.9 0.0
21/12:30am 11.1 7.4 8.1 82 1.5 ESE 17 22 9 12 1019.1 1018.1 0.0
21/12:00am 11.4 7.8 8.3 81 1.5 ESE 17 20 9 11 1019.5 1018.5 0.0
 
Date/Time
CDT
Temp
°C
App
Temp
°C
Dew
Point
°C
Rel
Hum
%
Delta-T
°C
Wind Press
QNH
hPa
Press
MSL
hPa
Rain since
9am
mm
Dir  Spd
km/h
Gust
km/h
Spd
kts
Gust
kts
20/11:30pm 11.1 8.2 8.1 82 1.5 SE 13 17 7 9 1019.9 1018.9 0.0
20/11:00pm 11.4 8.6 8.4 82 1.5 ESE 13 17 7 9 1019.7 1018.7 0.0
20/10:30pm 11.3 8.1 8.3 82 1.5 SE 15 17 8 9 1019.7 1018.7 0.0
20/10:00pm 11.4 8.2 8.3 81 1.6 SE 15 22 8 12 1019.6 1018.6 0.0
20/09:30pm 11.6 8.4 8.3 80 1.6 SE 15 20 8 11 1019.4 1018.4 0.0
20/09:00pm 11.7 8.0 8.0 78 1.8 SE 17 20 9 11 1019.1 1018.1 0.0
20/08:30pm 11.9 8.5 7.6 75 2.1 SE 15 20 8 11 1019.1 1018.1 0.0
20/08:00pm 12.6 9.2 7.7 72 2.4 SE 15 20 8 11 1018.8 1017.8 0.0
20/07:30pm 13.3 9.5 7.5 68 2.9 SSE 17 24 9 13 1018.8 1017.8 0.0
20/07:00pm 13.9 10.2 7.9 67 3.0 SSE 17 26 9 14 1018.5 1017.5 0.0
20/06:30pm 14.3 11.0 8.0 66 3.2 SE 15 20 8 11 1018.5 1017.5 0.0
20/06:00pm 14.8 11.7 8.7 67 3.1 SSE 15 20 8 11 1018.1 1017.0 0.0
20/05:30pm 15.1 11.7 9.0 67 3.2 SSE 17 24 9 13 1017.8 1016.7 0.0
20/05:00pm 14.9 11.6 8.2 64 3.4 SSE 15 24 8 13 1018.0 1016.9 0.0
20/04:30pm 15.8 12.7 9.0 64 3.5 SE 15 24 8 13 1018.0 1016.9 0.0
20/04:00pm 15.4 11.9 8.6 64 3.5 SSE 17 24 9 13 1018.0 1016.9 0.0
20/03:30pm 15.0 11.3 7.8 62 3.6 SSE 17 22 9 12 1018.2 1017.1 0.0
20/03:00pm 15.7 12.1 8.4 62 3.8 SSE 17 24 9 13 1018.3 1017.2 0.0
20/02:30pm 15.4 11.9 8.6 64 3.5 SSE 17 28 9 15 1018.4 1017.4 0.0
20/02:00pm 14.8 11.7 8.7 67 3.1 S 15 22 8 12 1018.5 1017.5 0.0
20/01:30pm 15.3 12.6 9.0 66 3.3 SSE 13 22 7 12 1018.6 1017.6 0.0
20/01:00pm 15.7 13.4 9.1 65 3.5 S 11 19 6 10 1018.7 1017.7 0.0
20/12:30pm 14.5 11.7 8.5 67 3.1 S 13 19 7 10 1018.7 1017.7 0.0
20/12:00pm 14.7 12.9 9.3 70 2.8 S 9 17 5 9 1018.9 1017.9 0.0
20/11:30am 14.2 11.5 8.8 70 2.8 SSE 13 19 7 10 1019.0 1018.0 0.0
20/11:00am 14.5 11.6 8.0 65 3.3 SE 13 19 7 10 1019.1 1018.1 0.0
20/10:30am 14.7 12.1 9.3 70 2.8 SE 13 17 7 9 1019.1 1018.1 0.0
20/10:00am 14.4 12.0 8.8 69 2.9 SSE 11 19 6 10 1019.1 1018.1 0.0
20/09:30am 13.6 10.7 8.2 70 2.7 SE 13 17 7 9 1019.0 1018.0 0.0
20/09:00am 12.9 10.4 8.0 72 2.5 SSE 11 15 6 8 1018.7 1017.7 3.4
20/08:30am 12.7 10.2 8.4 75 2.2 SSE 11 15 6 8 1018.4 1017.4 3.4
20/08:00am 12.2 10.1 8.3 77 2.0 SSE 9 15 5 8 1018.2 1017.1 3.4
20/07:30am 11.8 10.3 8.5 80 1.7 SE 6 7 3 4 1017.9 1016.8 3.4
20/07:00am 11.8 10.2 8.6 81 1.6 SSE 7 13 4 7 1017.5 1016.4 3.4
20/06:30am 11.7 10.1 8.6 81 1.6 S 7 11 4 6 1017.4 1016.3 3.4
20/06:00am 11.9 9.1 8.6 80 1.7 SSE 13 17 7 9 1016.9 1015.9 3.4
20/05:30am 11.9 10.0 9.1 83 1.4 S 9 15 5 8 1016.7 1015.7 3.4
20/05:00am 11.9 10.4 9.1 83 1.4 S 7 11 4 6 1016.4 1015.4 3.4
20/04:30am 11.6 9.7 9.2 85 1.2 S 9 11 5 6 1016.4 1015.4 3.4
20/04:00am 11.5 10.3 10.4 93 0.6 SSW 7 9 4 5 1016.4 1015.4 3.4
20/03:30am 11.2 9.7 10.6 96 0.3 SW 9 17 5 9 1016.5 1015.5 3.4
20/03:00am 11.5 10.2 10.1 91 0.7 SSW 7 13 4 7 1016.6 1015.6 3.4
20/02:30am 11.6 10.3 9.9 89 0.9 S 7 13 4 7 1016.6 1015.6 3.2
20/02:00am 11.7 8.9 10.1 90 0.8 S 15 20 8 11 1016.7 1015.7 3.2
20/01:30am 11.9 10.2 10.0 88 1.0 SSW 9 15 5 8 1016.8 1015.8 3.2
20/01:00am 11.5 10.2 9.8 89 0.9 SSW 7 13 4 7 1017.0 1016.0 3.2
20/12:30am 11.8 8.9 9.5 86 1.2 SSW 15 22 8 12 1017.0 1016.0 3.0
20/12:00am 11.9 9.4 9.8 87 1.1 SSW 13 19 7 10 1017.0 1016.0 3.0
 
Date/Time
CDT
Temp
°C
App
Temp
°C
Dew
Point
°C
Rel
Hum
%
Delta-T
°C
Wind Press
QNH
hPa
Press
MSL
hPa
Rain since
9am
mm
Dir  Spd
km/h
Gust
km/h
Spd
kts
Gust
kts
19/11:30pm 12.0 9.6 9.9 87 1.1 SSW 13 22 7 12 1017.3 1016.2 3.0
19/11:00pm 11.7 9.3 10.1 90 0.8 SSW 13 20 7 11 1017.4 1016.3 3.0
19/10:30pm 11.9 10.1 11.0 94 0.5 SSW 11 15 6 8 1017.4 1016.3 3.0
19/10:00pm 11.8 8.9 10.9 94 0.5 SSW 17 26 9 14 1017.4 1016.3 3.0
19/09:30pm 11.8 10.5 11.3 97 0.3 SW 9 13 5 7 1016.9 1015.9 3.0
19/09:00pm 11.8 9.3 11.0 95 0.4 SSW 15 24 8 13 1016.8 1015.8 2.4
19/08:30pm 12.3 10.3 10.2 87 1.1 SW 11 19 6 10 1016.6 1015.6 1.4
19/08:00pm 12.0 10.2 10.7 92 0.7 SW 11 19 6 10 1016.6 1015.6 1.4
19/07:30pm 12.4 9.6 10.1 86 1.2 SW 15 24 8 13 1016.4 1015.4 1.4
19/07:00pm 11.9 9.3 10.6 92 0.7 SW 15 22 8 12 1016.3 1015.3 1.4
19/06:30pm 12.1 8.5 10.7 91 0.7 SW 20 35 11 19 1016.2 1015.2 1.4
19/06:00pm 13.7 10.3 11.2 85 1.3 SSW 20 32 11 17 1015.9 1014.9 1.2
19/05:30pm 13.3 10.5 11.4 88 1.0 SSW 17 24 9 13 1016.0 1015.0 1.2
19/05:00pm 14.6 12.2 11.4 81 1.7 SW 15 24 8 13 1016.0 1015.0 1.2
19/04:30pm 13.8 10.4 10.6 81 1.7 SW 19 30 10 16 1016.0 1015.0 1.2
19/04:00pm 14.1 11.9 10.9 81 1.7 SW 13 30 7 16 1016.0 1015.0 1.2
19/03:30pm 13.2 10.5 11.6 90 0.9 SSW 17 32 9 17 1016.2 1015.2 1.2
19/03:00pm 14.4 10.8 10.4 77 2.1 SW 20 30 11 16 1016.2 1015.2 0.8
19/02:30pm 14.5 10.2 9.3 71 2.7 SW 22 37 12 20 1016.4 1015.4 0.8

Other Formats:

Comma delimited format used in spreadsheet applications
http://www.bom.gov.au/fwo/IDS60801/IDS60801.94811.axf

JavaScript Object Notation format (JSON) in row-major order
http://www.bom.gov.au/fwo/IDS60801/IDS60801.94811.json